sensor_id;sensor_type;location;lat;lon;timestamp;temperature;humidity
40287;DHT22;25998;46.604;13.610;2023-05-17T00:01:36;10.70;99.90
40287;DHT22;25998;46.604;13.610;2023-05-17T00:04:47;10.70;99.90
40287;DHT22;25998;46.604;13.610;2023-05-17T00:07:58;10.70;99.90
40287;DHT22;25998;46.604;13.610;2023-05-17T00:11:09;10.60;99.90
40287;DHT22;25998;46.604;13.610;2023-05-17T00:14:20;10.60;99.90
40287;DHT22;25998;46.604;13.610;2023-05-17T00:17:31;10.50;99.90
40287;DHT22;25998;46.604;13.610;2023-05-17T00:20:42;10.60;99.90
40287;DHT22;25998;46.604;13.610;2023-05-17T00:23:52;10.60;99.90
40287;DHT22;25998;46.604;13.610;2023-05-17T00:27:04;10.70;99.90
40287;DHT22;25998;46.604;13.610;2023-05-17T00:30:15;10.60;99.90
40287;DHT22;25998;46.604;13.610;2023-05-17T00:33:25;10.50;99.90
40287;DHT22;25998;46.604;13.610;2023-05-17T00:36:36;10.40;99.90
40287;DHT22;25998;46.604;13.610;2023-05-17T00:39:47;10.40;99.90
40287;DHT22;25998;46.604;13.610;2023-05-17T00:42:58;10.30;99.90
40287;DHT22;25998;46.604;13.610;2023-05-17T00:46:10;10.30;99.90
40287;DHT22;25998;46.604;13.610;2023-05-17T00:49:20;10.30;99.90
40287;DHT22;25998;46.604;13.610;2023-05-17T00:52:32;10.40;99.90
40287;DHT22;25998;46.604;13.610;2023-05-17T00:55:43;10.40;99.90
40287;DHT22;25998;46.604;13.610;2023-05-17T00:58:54;10.40;99.90
40287;DHT22;25998;46.604;13.610;2023-05-17T01:02:05;10.40;99.90
40287;DHT22;25998;46.604;13.610;2023-05-17T01:05:17;10.30;99.90
40287;DHT22;25998;46.604;13.610;2023-05-17T01:08:28;10.20;99.90
40287;DHT22;25998;46.604;13.610;2023-05-17T01:11:55;10.30;99.90
40287;DHT22;25998;46.604;13.610;2023-05-17T01:15:19;10.30;99.90
40287;DHT22;25998;46.604;13.610;2023-05-17T01:18:40;10.40;99.90
40287;DHT22;25998;46.604;13.610;2023-05-17T01:25:34;10.40;99.90
40287;DHT22;25998;46.604;13.610;2023-05-17T01:28:51;10.40;99.90
40287;DHT22;25998;46.604;13.610;2023-05-17T01:32:02;10.50;99.90
40287;DHT22;25998;46.604;13.610;2023-05-17T01:35:14;10.50;99.90
40287;DHT22;25998;46.604;13.610;2023-05-17T01:38:25;10.40;99.90
40287;DHT22;25998;46.604;13.610;2023-05-17T01:41:39;10.30;99.90
40287;DHT22;25998;46.604;13.610;2023-05-17T01:45:22;10.30;99.90
40287;DHT22;25998;46.604;13.610;2023-05-17T01:48:36;10.40;99.90
40287;DHT22;25998;46.604;13.610;2023-05-17T01:58:45;10.40;99.90
40287;DHT22;25998;46.604;13.610;2023-05-17T02:01:58;10.40;99.90
40287;DHT22;25998;46.604;13.610;2023-05-17T02:05:16;10.30;99.90
40287;DHT22;25998;46.604;13.610;2023-05-17T02:08:27;10.40;99.90
40287;DHT22;25998;46.604;13.610;2023-05-17T02:11:38;10.40;99.90
40287;DHT22;25998;46.604;13.610;2023-05-17T02:14:49;10.50;99.90
40287;DHT22;25998;46.604;13.610;2023-05-17T02:18:00;10.50;99.90
40287;DHT22;25998;46.604;13.610;2023-05-17T02:21:11;10.40;99.90
40287;DHT22;25998;46.604;13.610;2023-05-17T02:24:22;10.30;99.90
40287;DHT22;25998;46.604;13.610;2023-05-17T02:27:34;10.20;99.90
40287;DHT22;25998;46.604;13.610;2023-05-17T02:30:45;10.30;99.90
40287;DHT22;25998;46.604;13.610;2023-05-17T02:33:56;10.30;99.90
40287;DHT22;25998;46.604;13.610;2023-05-17T02:37:07;10.30;99.90
40287;DHT22;25998;46.604;13.610;2023-05-17T02:40:18;10.30;99.90
40287;DHT22;25998;46.604;13.610;2023-05-17T02:43:29;10.40;99.90
40287;DHT22;25998;46.604;13.610;2023-05-17T02:46:40;10.40;99.90
40287;DHT22;25998;46.604;13.610;2023-05-17T02:49:51;10.40;99.90
40287;DHT22;25998;46.604;13.610;2023-05-17T02:53:02;10.30;99.90
40287;DHT22;25998;46.604;13.610;2023-05-17T02:56:13;10.40;99.90
40287;DHT22;25998;46.604;13.610;2023-05-17T02:59:23;10.20;99.90
40287;DHT22;25998;46.604;13.610;2023-05-17T03:02:34;10.00;99.90
40287;DHT22;25998;46.604;13.610;2023-05-17T03:05:45;10.10;99.90
40287;DHT22;25998;46.604;13.610;2023-05-17T03:08:56;10.10;99.90
40287;DHT22;25998;46.604;13.610;2023-05-17T03:12:07;10.10;99.90
40287;DHT22;25998;46.604;13.610;2023-05-17T03:15:18;10.20;99.90
40287;DHT22;25998;46.604;13.610;2023-05-17T03:18:30;10.20;99.90
40287;DHT22;25998;46.604;13.610;2023-05-17T03:21:41;10.30;99.90
40287;DHT22;25998;46.604;13.610;2023-05-17T03:24:51;10.30;99.90
40287;DHT22;25998;46.604;13.610;2023-05-17T03:28:03;10.40;99.90
40287;DHT22;25998;46.604;13.610;2023-05-17T03:31:14;10.30;99.90
40287;DHT22;25998;46.604;13.610;2023-05-17T03:34:25;10.30;99.90
40287;DHT22;25998;46.604;13.610;2023-05-17T03:37:35;10.30;99.90
40287;DHT22;25998;46.604;13.610;2023-05-17T03:40:46;10.30;99.90
40287;DHT22;25998;46.604;13.610;2023-05-17T03:43:57;10.10;99.90
40287;DHT22;25998;46.604;13.610;2023-05-17T03:47:08;10.10;99.90
40287;DHT22;25998;46.604;13.610;2023-05-17T03:50:19;10.10;99.90
40287;DHT22;25998;46.604;13.610;2023-05-17T03:53:30;10.10;99.90
40287;DHT22;25998;46.604;13.610;2023-05-17T03:56:40;10.10;99.90
40287;DHT22;25998;46.604;13.610;2023-05-17T03:59:56;10.20;99.90
40287;DHT22;25998;46.604;13.610;2023-05-17T04:03:07;10.20;99.90
40287;DHT22;25998;46.604;13.610;2023-05-17T04:06:18;10.20;99.90
40287;DHT22;25998;46.604;13.610;2023-05-17T04:09:30;10.10;99.90
40287;DHT22;25998;46.604;13.610;2023-05-17T04:12:41;10.20;99.90
40287;DHT22;25998;46.604;13.610;2023-05-17T04:15:52;10.00;99.90
40287;DHT22;25998;46.604;13.610;2023-05-17T04:19:03;9.90;99.90
40287;DHT22;25998;46.604;13.610;2023-05-17T04:22:14;9.80;99.90
40287;DHT22;25998;46.604;13.610;2023-05-17T04:25:24;9.80;99.90
40287;DHT22;25998;46.604;13.610;2023-05-17T04:28:35;9.80;99.90
40287;DHT22;25998;46.604;13.610;2023-05-17T04:31:46;9.80;99.90
40287;DHT22;25998;46.604;13.610;2023-05-17T04:34:59;9.90;99.90
40287;DHT22;25998;46.604;13.610;2023-05-17T04:38:10;9.90;99.90
40287;DHT22;25998;46.604;13.610;2023-05-17T04:41:21;9.90;99.90
40287;DHT22;25998;46.604;13.610;2023-05-17T04:44:32;10.00;99.90
40287;DHT22;25998;46.604;13.610;2023-05-17T04:47:43;10.20;99.90
40287;DHT22;25998;46.604;13.610;2023-05-17T04:50:54;10.20;99.90
40287;DHT22;25998;46.604;13.610;2023-05-17T04:54:05;10.30;99.90
40287;DHT22;25998;46.604;13.610;2023-05-17T04:57:18;10.20;99.90
40287;DHT22;25998;46.604;13.610;2023-05-17T05:00:29;10.20;99.90
40287;DHT22;25998;46.604;13.610;2023-05-17T05:03:40;10.30;99.90
40287;DHT22;25998;46.604;13.610;2023-05-17T05:06:51;10.40;99.90
40287;DHT22;25998;46.604;13.610;2023-05-17T05:10:05;10.40;99.90
40287;DHT22;25998;46.604;13.610;2023-05-17T05:13:16;10.50;99.90
40287;DHT22;25998;46.604;13.610;2023-05-17T05:16:27;10.40;99.90
40287;DHT22;25998;46.604;13.610;2023-05-17T05:19:38;10.40;99.90
40287;DHT22;25998;46.604;13.610;2023-05-17T05:22:49;10.50;99.90
40287;DHT22;25998;46.604;13.610;2023-05-17T05:25:59;10.50;99.90
40287;DHT22;25998;46.604;13.610;2023-05-17T05:29:12;10.50;99.90
40287;DHT22;25998;46.604;13.610;2023-05-17T05:32:23;10.70;99.90
40287;DHT22;25998;46.604;13.610;2023-05-17T05:35:33;10.70;99.90
40287;DHT22;25998;46.604;13.610;2023-05-17T05:38:44;10.60;99.90
40287;DHT22;25998;46.604;13.610;2023-05-17T05:41:55;10.70;99.90
40287;DHT22;25998;46.604;13.610;2023-05-17T05:45:06;10.70;99.90
40287;DHT22;25998;46.604;13.610;2023-05-17T05:48:17;10.80;99.90
40287;DHT22;25998;46.604;13.610;2023-05-17T05:51:28;10.80;99.90
40287;DHT22;25998;46.604;13.610;2023-05-17T05:54:39;10.90;99.90
40287;DHT22;25998;46.604;13.610;2023-05-17T05:57:50;10.90;99.90
40287;DHT22;25998;46.604;13.610;2023-05-17T06:01:01;11.00;99.90
40287;DHT22;25998;46.604;13.610;2023-05-17T06:04:12;11.10;99.90
40287;DHT22;25998;46.604;13.610;2023-05-17T06:07:23;11.20;99.90
40287;DHT22;25998;46.604;13.610;2023-05-17T06:10:34;11.30;99.90
40287;DHT22;25998;46.604;13.610;2023-05-17T06:13:45;11.40;99.90
40287;DHT22;25998;46.604;13.610;2023-05-17T06:16:56;11.40;99.90
40287;DHT22;25998;46.604;13.610;2023-05-17T06:20:08;11.40;99.90
40287;DHT22;25998;46.604;13.610;2023-05-17T06:23:18;11.50;99.90
40287;DHT22;25998;46.604;13.610;2023-05-17T06:26:29;11.50;99.90
40287;DHT22;25998;46.604;13.610;2023-05-17T06:29:41;11.40;99.90
40287;DHT22;25998;46.604;13.610;2023-05-17T06:32:52;11.40;99.90
40287;DHT22;25998;46.604;13.610;2023-05-17T06:36:03;11.40;99.90
40287;DHT22;25998;46.604;13.610;2023-05-17T06:39:13;11.40;99.90
40287;DHT22;25998;46.604;13.610;2023-05-17T06:42:25;11.40;99.90
40287;DHT22;25998;46.604;13.610;2023-05-17T06:45:36;11.40;99.90
40287;DHT22;25998;46.604;13.610;2023-05-17T06:48:46;11.50;99.90
40287;DHT22;25998;46.604;13.610;2023-05-17T06:51:57;11.60;99.90
40287;DHT22;25998;46.604;13.610;2023-05-17T06:55:12;11.70;99.90
40287;DHT22;25998;46.604;13.610;2023-05-17T06:58:23;11.80;99.90
40287;DHT22;25998;46.604;13.610;2023-05-17T07:01:34;11.80;99.90
40287;DHT22;25998;46.604;13.610;2023-05-17T07:04:45;12.00;99.90
40287;DHT22;25998;46.604;13.610;2023-05-17T07:07:57;12.00;99.90
40287;DHT22;25998;46.604;13.610;2023-05-17T07:11:08;12.00;99.90
40287;DHT22;25998;46.604;13.610;2023-05-17T07:14:19;12.00;99.90
40287;DHT22;25998;46.604;13.610;2023-05-17T07:17:30;12.00;99.90
40287;DHT22;25998;46.604;13.610;2023-05-17T07:20:41;12.00;99.90
40287;DHT22;25998;46.604;13.610;2023-05-17T07:23:52;11.90;99.90
40287;DHT22;25998;46.604;13.610;2023-05-17T07:27:03;11.80;99.90
40287;DHT22;25998;46.604;13.610;2023-05-17T07:30:14;11.80;99.90
40287;DHT22;25998;46.604;13.610;2023-05-17T07:33:25;11.70;99.90
40287;DHT22;25998;46.604;13.610;2023-05-17T07:36:35;11.80;99.90
40287;DHT22;25998;46.604;13.610;2023-05-17T07:39:46;12.00;99.90
40287;DHT22;25998;46.604;13.610;2023-05-17T07:42:57;12.10;99.90
40287;DHT22;25998;46.604;13.610;2023-05-17T07:46:08;12.20;99.90
40287;DHT22;25998;46.604;13.610;2023-05-17T07:49:19;12.30;99.90
40287;DHT22;25998;46.604;13.610;2023-05-17T07:52:29;12.50;99.90
40287;DHT22;25998;46.604;13.610;2023-05-17T07:55:40;12.50;99.90
40287;DHT22;25998;46.604;13.610;2023-05-17T07:58:51;12.60;99.90
40287;DHT22;25998;46.604;13.610;2023-05-17T08:02:02;12.60;99.90
40287;DHT22;25998;46.604;13.610;2023-05-17T08:05:13;12.70;99.90
40287;DHT22;25998;46.604;13.610;2023-05-17T08:08:24;12.60;99.90
40287;DHT22;25998;46.604;13.610;2023-05-17T08:11:35;12.50;99.90
40287;DHT22;25998;46.604;13.610;2023-05-17T08:14:45;12.60;99.90
40287;DHT22;25998;46.604;13.610;2023-05-17T08:17:56;12.50;99.90
40287;DHT22;25998;46.604;13.610;2023-05-17T08:21:07;12.50;99.90
40287;DHT22;25998;46.604;13.610;2023-05-17T08:24:18;12.50;99.90
40287;DHT22;25998;46.604;13.610;2023-05-17T08:27:29;12.60;99.90
40287;DHT22;25998;46.604;13.610;2023-05-17T08:30:41;12.70;99.90
40287;DHT22;25998;46.604;13.610;2023-05-17T08:33:52;12.80;99.90
40287;DHT22;25998;46.604;13.610;2023-05-17T08:37:03;12.80;99.90
40287;DHT22;25998;46.604;13.610;2023-05-17T08:40:15;12.80;99.90
40287;DHT22;25998;46.604;13.610;2023-05-17T08:43:29;13.00;99.90
40287;DHT22;25998;46.604;13.610;2023-05-17T08:46:42;13.20;99.90
40287;DHT22;25998;46.604;13.610;2023-05-17T08:49:55;13.20;99.90
40287;DHT22;25998;46.604;13.610;2023-05-17T08:53:10;13.30;99.90
40287;DHT22;25998;46.604;13.610;2023-05-17T08:56:22;13.50;99.90
40287;DHT22;25998;46.604;13.610;2023-05-17T08:59:33;13.60;99.90
40287;DHT22;25998;46.604;13.610;2023-05-17T09:02:45;13.50;99.90
40287;DHT22;25998;46.604;13.610;2023-05-17T09:05:57;13.40;99.90
40287;DHT22;25998;46.604;13.610;2023-05-17T09:09:09;13.80;99.90
40287;DHT22;25998;46.604;13.610;2023-05-17T09:12:21;13.90;99.90
40287;DHT22;25998;46.604;13.610;2023-05-17T09:15:32;13.90;99.90
40287;DHT22;25998;46.604;13.610;2023-05-17T09:18:55;14.00;99.90
40287;DHT22;25998;46.604;13.610;2023-05-17T09:22:06;13.80;99.90
40287;DHT22;25998;46.604;13.610;2023-05-17T09:25:22;14.00;99.90
40287;DHT22;25998;46.604;13.610;2023-05-17T09:28:40;14.10;99.90
40287;DHT22;25998;46.604;13.610;2023-05-17T09:31:51;14.30;99.90
40287;DHT22;25998;46.604;13.610;2023-05-17T09:35:04;14.40;99.90
40287;DHT22;25998;46.604;13.610;2023-05-17T09:38:15;14.60;99.90
40287;DHT22;25998;46.604;13.610;2023-05-17T09:41:26;14.70;99.90
40287;DHT22;25998;46.604;13.610;2023-05-17T09:44:51;14.70;99.90
40287;DHT22;25998;46.604;13.610;2023-05-17T09:48:15;14.70;99.90
40287;DHT22;25998;46.604;13.610;2023-05-17T09:51:34;14.70;99.90
40287;DHT22;25998;46.604;13.610;2023-05-17T09:54:57;14.90;99.90
40287;DHT22;25998;46.604;13.610;2023-05-17T09:58:08;14.90;99.90
40287;DHT22;25998;46.604;13.610;2023-05-17T10:01:20;15.00;99.90
40287;DHT22;25998;46.604;13.610;2023-05-17T10:04:32;15.00;99.90
40287;DHT22;25998;46.604;13.610;2023-05-17T10:07:45;15.10;99.90
40287;DHT22;25998;46.604;13.610;2023-05-17T10:11:10;14.90;99.90
40287;DHT22;25998;46.604;13.610;2023-05-17T10:14:29;15.10;99.90
40287;DHT22;25998;46.604;13.610;2023-05-17T10:17:43;15.00;99.90
40287;DHT22;25998;46.604;13.610;2023-05-17T10:20:55;14.80;99.90
40287;DHT22;25998;46.604;13.610;2023-05-17T10:24:07;14.80;99.90
40287;DHT22;25998;46.604;13.610;2023-05-17T10:27:20;14.90;99.90
40287;DHT22;25998;46.604;13.610;2023-05-17T10:30:32;15.00;99.90
40287;DHT22;25998;46.604;13.610;2023-05-17T10:33:46;14.90;99.90
40287;DHT22;25998;46.604;13.610;2023-05-17T10:37:00;14.70;99.90
40287;DHT22;25998;46.604;13.610;2023-05-17T10:40:12;14.70;99.90
40287;DHT22;25998;46.604;13.610;2023-05-17T10:43:24;14.90;99.90
40287;DHT22;25998;46.604;13.610;2023-05-17T10:46:38;15.00;99.90
40287;DHT22;25998;46.604;13.610;2023-05-17T10:49:49;15.00;99.90
40287;DHT22;25998;46.604;13.610;2023-05-17T10:53:01;15.10;99.90
40287;DHT22;25998;46.604;13.610;2023-05-17T10:56:15;15.00;99.90
40287;DHT22;25998;46.604;13.610;2023-05-17T10:59:26;15.10;99.90
40287;DHT22;25998;46.604;13.610;2023-05-17T11:02:39;15.00;99.90
40287;DHT22;25998;46.604;13.610;2023-05-17T11:06:12;14.90;99.90
40287;DHT22;25998;46.604;13.610;2023-05-17T11:09:23;15.00;99.90
40287;DHT22;25998;46.604;13.610;2023-05-17T11:16:02;15.00;99.90
40287;DHT22;25998;46.604;13.610;2023-05-17T11:19:14;14.90;99.90
40287;DHT22;25998;46.604;13.610;2023-05-17T11:22:26;14.70;99.90
40287;DHT22;25998;46.604;13.610;2023-05-17T11:25:38;14.40;99.90
40287;DHT22;25998;46.604;13.610;2023-05-17T11:29:16;14.50;99.90
40287;DHT22;25998;46.604;13.610;2023-05-17T11:32:31;14.40;99.90
40287;DHT22;25998;46.604;13.610;2023-05-17T11:35:43;14.40;99.90
40287;DHT22;25998;46.604;13.610;2023-05-17T11:39:14;14.50;99.90
40287;DHT22;25998;46.604;13.610;2023-05-17T11:42:26;14.60;99.90
40287;DHT22;25998;46.604;13.610;2023-05-17T11:45:45;14.40;99.90
40287;DHT22;25998;46.604;13.610;2023-05-17T11:48:58;14.50;99.90
40287;DHT22;25998;46.604;13.610;2023-05-17T11:52:10;14.60;99.90
40287;DHT22;25998;46.604;13.610;2023-05-17T11:55:21;14.70;99.90
40287;DHT22;25998;46.604;13.610;2023-05-17T11:58:32;15.00;99.90
40287;DHT22;25998;46.604;13.610;2023-05-17T12:01:48;15.00;99.90
40287;DHT22;25998;46.604;13.610;2023-05-17T12:04:59;14.90;99.90
40287;DHT22;25998;46.604;13.610;2023-05-17T12:08:10;15.10;99.90
40287;DHT22;25998;46.604;13.610;2023-05-17T12:11:21;14.90;99.90
40287;DHT22;25998;46.604;13.610;2023-05-17T12:14:32;14.80;99.90
40287;DHT22;25998;46.604;13.610;2023-05-17T12:17:44;14.90;99.90
40287;DHT22;25998;46.604;13.610;2023-05-17T12:20:57;14.90;99.90
40287;DHT22;25998;46.604;13.610;2023-05-17T12:24:08;14.90;99.90
40287;DHT22;25998;46.604;13.610;2023-05-17T12:27:25;15.10;99.90
40287;DHT22;25998;46.604;13.610;2023-05-17T12:30:46;15.30;99.90
40287;DHT22;25998;46.604;13.610;2023-05-17T12:34:03;15.20;99.90
40287;DHT22;25998;46.604;13.610;2023-05-17T12:37:14;15.10;99.90
40287;DHT22;25998;46.604;13.610;2023-05-17T12:40:26;15.00;99.90
40287;DHT22;25998;46.604;13.610;2023-05-17T12:43:38;14.90;99.90
40287;DHT22;25998;46.604;13.610;2023-05-17T12:46:50;14.80;99.90
40287;DHT22;25998;46.604;13.610;2023-05-17T12:50:03;14.80;99.90
40287;DHT22;25998;46.604;13.610;2023-05-17T12:53:15;14.80;99.90
40287;DHT22;25998;46.604;13.610;2023-05-17T12:56:27;14.90;99.90
40287;DHT22;25998;46.604;13.610;2023-05-17T12:59:46;14.80;99.90
40287;DHT22;25998;46.604;13.610;2023-05-17T13:02:58;14.60;99.90
40287;DHT22;25998;46.604;13.610;2023-05-17T13:06:09;14.60;99.90
40287;DHT22;25998;46.604;13.610;2023-05-17T13:09:21;14.70;99.90
40287;DHT22;25998;46.604;13.610;2023-05-17T13:12:33;14.80;99.90
40287;DHT22;25998;46.604;13.610;2023-05-17T13:15:48;14.70;99.90
40287;DHT22;25998;46.604;13.610;2023-05-17T13:18:59;14.70;99.90
40287;DHT22;25998;46.604;13.610;2023-05-17T13:22:10;14.60;99.90
40287;DHT22;25998;46.604;13.610;2023-05-17T13:25:21;14.50;99.90
40287;DHT22;25998;46.604;13.610;2023-05-17T13:28:32;14.50;99.90
40287;DHT22;25998;46.604;13.610;2023-05-17T13:31:43;14.60;99.90
40287;DHT22;25998;46.604;13.610;2023-05-17T13:34:54;14.70;99.90
40287;DHT22;25998;46.604;13.610;2023-05-17T13:38:06;14.90;99.90
40287;DHT22;25998;46.604;13.610;2023-05-17T13:41:17;14.80;99.90
40287;DHT22;25998;46.604;13.610;2023-05-17T13:44:27;14.80;99.90
40287;DHT22;25998;46.604;13.610;2023-05-17T13:47:38;14.80;99.90
40287;DHT22;25998;46.604;13.610;2023-05-17T13:50:49;14.80;99.90
40287;DHT22;25998;46.604;13.610;2023-05-17T13:54:00;14.70;99.90
40287;DHT22;25998;46.604;13.610;2023-05-17T13:57:11;14.50;99.90
40287;DHT22;25998;46.604;13.610;2023-05-17T14:00:22;14.50;99.90
40287;DHT22;25998;46.604;13.610;2023-05-17T14:03:33;14.40;99.90
40287;DHT22;25998;46.604;13.610;2023-05-17T14:06:45;14.40;99.90
40287;DHT22;25998;46.604;13.610;2023-05-17T14:09:56;14.20;99.90
40287;DHT22;25998;46.604;13.610;2023-05-17T14:13:07;14.20;99.90
40287;DHT22;25998;46.604;13.610;2023-05-17T14:16:18;14.40;99.90
40287;DHT22;25998;46.604;13.610;2023-05-17T14:19:29;14.50;99.90
40287;DHT22;25998;46.604;13.610;2023-05-17T14:22:40;14.60;99.90
40287;DHT22;25998;46.604;13.610;2023-05-17T14:25:51;14.80;99.90
40287;DHT22;25998;46.604;13.610;2023-05-17T14:29:01;14.80;99.90
40287;DHT22;25998;46.604;13.610;2023-05-17T14:32:12;15.00;99.90
40287;DHT22;25998;46.604;13.610;2023-05-17T14:35:23;15.00;99.90
40287;DHT22;25998;46.604;13.610;2023-05-17T14:38:36;15.10;99.90
40287;DHT22;25998;46.604;13.610;2023-05-17T14:41:47;15.10;99.90
40287;DHT22;25998;46.604;13.610;2023-05-17T14:44:58;15.00;99.90
40287;DHT22;25998;46.604;13.610;2023-05-17T14:48:09;15.00;99.90
40287;DHT22;25998;46.604;13.610;2023-05-17T14:51:20;15.00;99.90
40287;DHT22;25998;46.604;13.610;2023-05-17T14:54:31;15.10;99.90
40287;DHT22;25998;46.604;13.610;2023-05-17T14:57:42;14.90;99.90
40287;DHT22;25998;46.604;13.610;2023-05-17T15:00:54;14.80;99.90
40287;DHT22;25998;46.604;13.610;2023-05-17T15:04:08;14.60;99.90
40287;DHT22;25998;46.604;13.610;2023-05-17T15:07:19;14.70;99.90
40287;DHT22;25998;46.604;13.610;2023-05-17T15:10:31;14.70;99.90
40287;DHT22;25998;46.604;13.610;2023-05-17T15:13:42;14.60;99.90
40287;DHT22;25998;46.604;13.610;2023-05-17T15:16:53;14.50;99.90
40287;DHT22;25998;46.604;13.610;2023-05-17T15:20:05;14.30;99.90
40287;DHT22;25998;46.604;13.610;2023-05-17T15:23:16;14.50;99.90
40287;DHT22;25998;46.604;13.610;2023-05-17T15:26:27;14.60;99.90
40287;DHT22;25998;46.604;13.610;2023-05-17T15:29:38;14.30;99.90
40287;DHT22;25998;46.604;13.610;2023-05-17T15:32:50;14.20;99.90
40287;DHT22;25998;46.604;13.610;2023-05-17T15:36:01;14.20;99.90
40287;DHT22;25998;46.604;13.610;2023-05-17T15:39:11;14.10;99.90
40287;DHT22;25998;46.604;13.610;2023-05-17T15:42:22;14.10;99.90
40287;DHT22;25998;46.604;13.610;2023-05-17T15:45:33;14.10;99.90
40287;DHT22;25998;46.604;13.610;2023-05-17T15:48:45;14.00;99.90
40287;DHT22;25998;46.604;13.610;2023-05-17T15:51:55;14.10;99.90
40287;DHT22;25998;46.604;13.610;2023-05-17T15:55:06;13.80;99.90
40287;DHT22;25998;46.604;13.610;2023-05-17T15:58:21;13.80;99.90
40287;DHT22;25998;46.604;13.610;2023-05-17T16:01:32;13.80;99.90
40287;DHT22;25998;46.604;13.610;2023-05-17T16:04:43;13.60;99.90
40287;DHT22;25998;46.604;13.610;2023-05-17T16:07:54;13.60;99.90
40287;DHT22;25998;46.604;13.610;2023-05-17T16:11:06;13.70;99.90
40287;DHT22;25998;46.604;13.610;2023-05-17T16:14:17;13.70;99.90
40287;DHT22;25998;46.604;13.610;2023-05-17T16:17:28;13.40;99.90
40287;DHT22;25998;46.604;13.610;2023-05-17T16:20:39;13.40;99.90
40287;DHT22;25998;46.604;13.610;2023-05-17T16:23:50;13.50;99.90
40287;DHT22;25998;46.604;13.610;2023-05-17T16:27:01;13.60;99.90
40287;DHT22;25998;46.604;13.610;2023-05-17T16:30:12;13.60;99.90
40287;DHT22;25998;46.604;13.610;2023-05-17T16:33:24;13.50;99.90
40287;DHT22;25998;46.604;13.610;2023-05-17T16:36:35;13.40;99.90
40287;DHT22;25998;46.604;13.610;2023-05-17T16:39:46;13.00;99.90
40287;DHT22;25998;46.604;13.610;2023-05-17T16:42:57;13.10;99.90
40287;DHT22;25998;46.604;13.610;2023-05-17T16:46:07;13.20;99.90
40287;DHT22;25998;46.604;13.610;2023-05-17T16:49:18;13.30;99.90
40287;DHT22;25998;46.604;13.610;2023-05-17T16:52:30;13.20;99.90
40287;DHT22;25998;46.604;13.610;2023-05-17T16:55:41;13.00;99.90
40287;DHT22;25998;46.604;13.610;2023-05-17T16:58:52;13.00;99.90
40287;DHT22;25998;46.604;13.610;2023-05-17T17:02:03;12.80;99.90
40287;DHT22;25998;46.604;13.610;2023-05-17T17:05:14;12.80;99.90
40287;DHT22;25998;46.604;13.610;2023-05-17T17:08:24;12.70;99.90
40287;DHT22;25998;46.604;13.610;2023-05-17T17:11:36;12.50;99.90
40287;DHT22;25998;46.604;13.610;2023-05-17T17:14:47;12.40;99.90
40287;DHT22;25998;46.604;13.610;2023-05-17T17:17:58;12.50;99.90
40287;DHT22;25998;46.604;13.610;2023-05-17T17:21:08;12.50;99.90
40287;DHT22;25998;46.604;13.610;2023-05-17T17:24:19;12.50;99.90
40287;DHT22;25998;46.604;13.610;2023-05-17T17:27:30;12.50;99.90
40287;DHT22;25998;46.604;13.610;2023-05-17T17:30:41;12.50;99.90
40287;DHT22;25998;46.604;13.610;2023-05-17T17:33:52;12.30;99.90
40287;DHT22;25998;46.604;13.610;2023-05-17T17:37:03;12.20;99.90
40287;DHT22;25998;46.604;13.610;2023-05-17T17:40:14;11.90;99.90
40287;DHT22;25998;46.604;13.610;2023-05-17T17:43:25;11.90;99.90
40287;DHT22;25998;46.604;13.610;2023-05-17T17:46:36;11.80;99.90
40287;DHT22;25998;46.604;13.610;2023-05-17T17:49:47;11.80;99.90
40287;DHT22;25998;46.604;13.610;2023-05-17T17:52:58;11.90;99.90
40287;DHT22;25998;46.604;13.610;2023-05-17T17:56:10;12.10;99.90
40287;DHT22;25998;46.604;13.610;2023-05-17T17:59:21;12.10;99.90
40287;DHT22;25998;46.604;13.610;2023-05-17T18:02:32;12.20;99.90
40287;DHT22;25998;46.604;13.610;2023-05-17T18:05:43;12.20;99.90
40287;DHT22;25998;46.604;13.610;2023-05-17T18:08:54;12.20;99.90
40287;DHT22;25998;46.604;13.610;2023-05-17T18:12:07;12.30;99.90
40287;DHT22;25998;46.604;13.610;2023-05-17T18:15:18;12.10;99.90
40287;DHT22;25998;46.604;13.610;2023-05-17T18:18:29;12.00;99.90
40287;DHT22;25998;46.604;13.610;2023-05-17T18:21:40;12.10;99.90
40287;DHT22;25998;46.604;13.610;2023-05-17T18:24:52;12.00;99.90
40287;DHT22;25998;46.604;13.610;2023-05-17T18:28:03;12.00;99.90
40287;DHT22;25998;46.604;13.610;2023-05-17T18:31:14;12.00;99.90
40287;DHT22;25998;46.604;13.610;2023-05-17T18:34:25;12.00;99.90
40287;DHT22;25998;46.604;13.610;2023-05-17T18:37:36;11.80;99.90
40287;DHT22;25998;46.604;13.610;2023-05-17T18:40:47;11.70;99.90
40287;DHT22;25998;46.604;13.610;2023-05-17T18:43:59;11.60;99.90
40287;DHT22;25998;46.604;13.610;2023-05-17T18:47:12;11.70;99.90
40287;DHT22;25998;46.604;13.610;2023-05-17T18:50:23;11.60;99.90
40287;DHT22;25998;46.604;13.610;2023-05-17T18:53:33;11.70;99.90
40287;DHT22;25998;46.604;13.610;2023-05-17T18:56:47;11.80;99.90
40287;DHT22;25998;46.604;13.610;2023-05-17T18:59:58;11.70;99.90
40287;DHT22;25998;46.604;13.610;2023-05-17T19:03:09;11.70;99.90
40287;DHT22;25998;46.604;13.610;2023-05-17T19:06:21;11.80;99.90
40287;DHT22;25998;46.604;13.610;2023-05-17T19:09:32;11.70;99.90
40287;DHT22;25998;46.604;13.610;2023-05-17T19:12:43;11.70;99.90
40287;DHT22;25998;46.604;13.610;2023-05-17T19:15:55;11.60;99.90
40287;DHT22;25998;46.604;13.610;2023-05-17T19:19:07;11.70;99.90
40287;DHT22;25998;46.604;13.610;2023-05-17T19:22:18;11.60;99.90
40287;DHT22;25998;46.604;13.610;2023-05-17T19:25:29;11.70;99.90
40287;DHT22;25998;46.604;13.610;2023-05-17T19:28:40;11.80;99.90
40287;DHT22;25998;46.604;13.610;2023-05-17T19:31:51;11.70;99.90
40287;DHT22;25998;46.604;13.610;2023-05-17T19:35:02;11.70;99.90
40287;DHT22;25998;46.604;13.610;2023-05-17T19:38:14;11.70;99.90
40287;DHT22;25998;46.604;13.610;2023-05-17T19:41:25;11.60;99.90
40287;DHT22;25998;46.604;13.610;2023-05-17T19:44:36;11.60;99.90
40287;DHT22;25998;46.604;13.610;2023-05-17T19:47:47;11.50;99.90
40287;DHT22;25998;46.604;13.610;2023-05-17T19:50:58;11.50;99.90
40287;DHT22;25998;46.604;13.610;2023-05-17T19:54:08;11.40;99.90
40287;DHT22;25998;46.604;13.610;2023-05-17T19:57:19;11.30;99.90
40287;DHT22;25998;46.604;13.610;2023-05-17T20:00:31;11.10;99.90
40287;DHT22;25998;46.604;13.610;2023-05-17T20:03:42;11.20;99.90
40287;DHT22;25998;46.604;13.610;2023-05-17T20:06:53;11.20;99.90
40287;DHT22;25998;46.604;13.610;2023-05-17T20:10:05;11.20;99.90